Chadwick, Missouri
Current Conditions -  °F | °C
As of 11:55 AM on Friday 21 Nov 2014 (Local Time) from KFWB Reporting Station
Overcast Overcast  
Wind Chill: 37°   Ceiling: 1500
Heat Index: 45°   Visibility: 10mi
Dew Point: 36°   Wind: 17mph
Humidity: 71%   Direction: 120°ESE
Pressure: 30.22"   Gusts: 25mph
Location:  36.93°N, 93.06°W
Report Text: KFWB 211755Z AUTO 12015G22KT 10SM BKN015 OVC022 07/02 A3022 RMK AO2
Loading
Personal Weather Stations






























Interactive Weather Map New forecast layout! Learn more

10-Day Weather Forecast

Advertisements
Track Severe Weather on mobile